createdAt,value
2019-01-30T00:00:02.994Z,-3.6
2019-01-30T00:15:03.299Z,-3.6
2019-01-30T00:30:03.977Z,-3.8
2019-01-30T00:45:02.957Z,-3.8
2019-01-30T01:00:03.288Z,-3.9
2019-01-30T01:15:03.044Z,-4
2019-01-30T01:30:03.374Z,-4.2
2019-01-30T01:45:02.678Z,-4.3
2019-01-30T02:00:02.978Z,-4.6
2019-01-30T02:15:03.292Z,-4.8
2019-01-30T02:30:02.675Z,-4.8
2019-01-30T02:45:02.905Z,-4.9
2019-01-30T03:00:03.242Z,-4.7
2019-01-30T03:15:02.493Z,-4.8
2019-01-30T03:30:02.887Z,-4.8
2019-01-30T03:45:03.358Z,-4.9
2019-01-30T04:00:02.655Z,-4.9
2019-01-30T04:15:02.888Z,-4.9
2019-01-30T04:30:03.311Z,-5
2019-01-30T04:45:02.578Z,-5.1
2019-01-30T05:00:02.887Z,-5.2
2019-01-30T05:15:03.120Z,-5.2
2019-01-30T05:30:02.809Z,-5.4
2019-01-30T05:45:03.158Z,-5.4
2019-01-30T06:00:03.380Z,-5.5
2019-01-30T06:15:02.613Z,-5.7
2019-01-30T06:30:03.197Z,-5.7
2019-01-30T06:45:02.460Z,-5.9
2019-01-30T07:00:02.687Z,-5.7
2019-01-30T07:15:03.059Z,-5.6
2019-01-30T07:30:03.440Z,-5.2
2019-01-30T07:45:02.718Z,-4.8
2019-01-30T08:00:03.019Z,-4.6
2019-01-30T08:15:03.308Z,-4.2
2019-01-30T08:30:02.700Z,-3.9
2019-01-30T08:45:02.991Z,-3.6
2019-01-30T09:00:03.402Z,-3.2
2019-01-30T09:15:02.562Z,-2.9
2019-01-30T09:30:02.984Z,-2.6
2019-01-30T09:45:03.317Z,-2.5
2019-01-30T10:00:02.565Z,-1.9
2019-01-30T10:15:03.018Z,-1.9
2019-01-30T10:30:02.384Z,-1.5
2019-01-30T10:45:02.805Z,-1.2
2019-01-30T11:00:03.128Z,-1
2019-01-30T11:15:03.447Z,-0.8
2019-01-30T11:30:02.813Z,-0.6
2019-01-30T11:45:03.023Z,-0.2
2019-01-30T12:00:03.394Z,0.1
2019-01-30T12:15:02.608Z,-0.3
2019-01-30T12:30:03.275Z,-0.4
2019-01-30T12:45:02.565Z,-0.2
2019-01-30T13:00:02.822Z,0.1
2019-01-30T13:15:03.049Z,0.1
2019-01-30T13:30:03.368Z,0.5
2019-01-30T13:45:03.156Z,0.6
2019-01-30T14:00:03.385Z,0.8
2019-01-30T14:15:02.614Z,0.8
2019-01-30T14:30:03.441Z,0.8
2019-01-30T14:45:02.712Z,0.8
2019-01-30T15:00:03.011Z,0.6
2019-01-30T15:15:03.368Z,0.4
2019-01-30T15:30:02.918Z,0.4
2019-01-30T15:45:02.448Z,0.2
2019-01-30T16:00:02.578Z,0.1
2019-01-30T16:15:03.136Z,-0.1
2019-01-30T16:30:02.687Z,-0.2
2019-01-30T16:45:03.217Z,-0.5
2019-01-30T17:00:02.563Z,-0.6
2019-01-30T17:15:02.883Z,-0.8
2019-01-30T17:30:03.232Z,-0.8
2019-01-30T17:45:02.453Z,-1
2019-01-30T18:00:02.810Z,-1.1
2019-01-30T18:15:03.123Z,-1.1
2019-01-30T18:30:02.495Z,-1.2
2019-01-30T18:45:02.810Z,-1.2
2019-01-30T19:00:03.176Z,-1.4
2019-01-30T19:15:02.565Z,-1.3
2019-01-30T19:30:04.460Z,-1.4
2019-01-30T19:45:03.205Z,-1.4
2019-01-30T20:00:02.493Z,-1.7
2019-01-30T20:15:02.793Z,-1.8
2019-01-30T20:30:02.848Z,-1.8
2019-01-30T20:45:03.161Z,-2.2
2019-01-30T21:00:02.722Z,-2.2
2019-01-30T21:15:03.226Z,-2.4
2019-01-30T21:30:02.453Z,-2.6
2019-01-30T21:45:02.796Z,-3
2019-01-30T22:00:03.156Z,-3.1
2019-01-30T22:15:02.480Z,-2.9
2019-01-30T22:30:02.841Z,-3.6
2019-01-30T22:45:03.198Z,-3.3
2019-01-30T23:00:02.611Z,-3.3
2019-01-30T23:15:03.064Z,-3.5
2019-01-30T23:45:03.403Z,-3.9
